<?xml version="1.0" encoding="UTF-8" standalone="no" ?>
<gpx xmlns="http://www.topografix.com/GPX/1/1" xmlns:xsi="http://www.w3.org/2001/XMLSchema-instance" xsi:schemaLocation="http://www.topografix.com/GPX/1/1 http://www.topografix.com/GPX/1/1/gpx.xsd" version="1.1" creator="VisuGPX - https://www.visugpx.com">
  <metadata>
    <name>Valergues - Etang de l?or</name>
  </metadata>
  <trk>
    <name><![CDATA[Valergues - Etang de l’or]]></name>
    <trkseg>
      <trkpt lat="43.66895" lon="4.05933">
        <ele>15.268</ele>
        <time>2021-07-06T17:18:36Z</time>
      </trkpt>
      <trkpt lat="43.66898" lon="4.05911">
        <ele>15.342</ele>
        <time>2021-07-06T17:18:38Z</time>
      </trkpt>
      <trkpt lat="43.66792" lon="4.06105">
        <ele>15.026</ele>
        <time>2021-07-06T17:19:25Z</time>
      </trkpt>
      <trkpt lat="43.66746" lon="4.06118">
        <ele>15.008</ele>
        <time>2021-07-06T17:19:34Z</time>
      </trkpt>
      <trkpt lat="43.6672" lon="4.06082">
        <ele>15.013</ele>
        <time>2021-07-06T17:20:00Z</time>
      </trkpt>
      <trkpt lat="43.66673" lon="4.06121">
        <ele>15.063</ele>
        <time>2021-07-06T17:20:18Z</time>
      </trkpt>
      <trkpt lat="43.6663" lon="4.06127">
        <ele>15.041</ele>
        <time>2021-07-06T17:20:32Z</time>
      </trkpt>
      <trkpt lat="43.66524" lon="4.06211">
        <ele>15.094</ele>
        <time>2021-07-06T17:20:54Z</time>
      </trkpt>
      <trkpt lat="43.66334" lon="4.0654">
        <ele>13.012</ele>
        <time>2021-07-06T17:21:51Z</time>
      </trkpt>
      <trkpt lat="43.66109" lon="4.06784">
        <ele>11.085</ele>
        <time>2021-07-06T17:22:42Z</time>
      </trkpt>
      <trkpt lat="43.65988" lon="4.06853">
        <ele>10.02</ele>
        <time>2021-07-06T17:23:04Z</time>
      </trkpt>
      <trkpt lat="43.65757" lon="4.06952">
        <ele>9.871</ele>
        <time>2021-07-06T17:23:47Z</time>
      </trkpt>
      <trkpt lat="43.65689" lon="4.06996">
        <ele>9.085</ele>
        <time>2021-07-06T17:24:01Z</time>
      </trkpt>
      <trkpt lat="43.65573" lon="4.07107">
        <ele>8.089</ele>
        <time>2021-07-06T17:24:27Z</time>
      </trkpt>
      <trkpt lat="43.65452" lon="4.07082">
        <ele>7.017</ele>
        <time>2021-07-06T17:24:51Z</time>
      </trkpt>
      <trkpt lat="43.65266" lon="4.06979">
        <ele>7.008</ele>
        <time>2021-07-06T17:25:31Z</time>
      </trkpt>
      <trkpt lat="43.65177" lon="4.07004">
        <ele>7.045</ele>
        <time>2021-07-06T17:26:04Z</time>
      </trkpt>
      <trkpt lat="43.65025" lon="4.0702">
        <ele>7.075</ele>
        <time>2021-07-06T17:26:42Z</time>
      </trkpt>
      <trkpt lat="43.64929" lon="4.07054">
        <ele>7.073</ele>
        <time>2021-07-06T17:27:12Z</time>
      </trkpt>
      <trkpt lat="43.64817" lon="4.0703">
        <ele>7.026</ele>
        <time>2021-07-06T17:27:58Z</time>
      </trkpt>
      <trkpt lat="43.64623" lon="4.07125">
        <ele>7.034</ele>
        <time>2021-07-06T17:28:37Z</time>
      </trkpt>
      <trkpt lat="43.64503" lon="4.07153">
        <ele>5.537</ele>
        <time>2021-07-06T17:29:02Z</time>
      </trkpt>
      <trkpt lat="43.64443" lon="4.07202">
        <ele>5.012</ele>
        <time>2021-07-06T17:29:16Z</time>
      </trkpt>
      <trkpt lat="43.64447" lon="4.07115">
        <ele>5.813</ele>
        <time>2021-07-06T17:29:34Z</time>
      </trkpt>
      <trkpt lat="43.64436" lon="4.07109">
        <ele>6.073</ele>
        <time>2021-07-06T17:29:38Z</time>
      </trkpt>
      <trkpt lat="43.6417" lon="4.07298">
        <ele>5.085</ele>
        <time>2021-07-06T17:30:39Z</time>
      </trkpt>
      <trkpt lat="43.64095" lon="4.07335">
        <ele>5.013</ele>
        <time>2021-07-06T17:30:54Z</time>
      </trkpt>
      <trkpt lat="43.63916" lon="4.07344">
        <ele>5.008</ele>
        <time>2021-07-06T17:31:29Z</time>
      </trkpt>
      <trkpt lat="43.63796" lon="4.07377">
        <ele>5.064</ele>
        <time>2021-07-06T17:31:52Z</time>
      </trkpt>
      <trkpt lat="43.63726" lon="4.0742">
        <ele>5.074</ele>
        <time>2021-07-06T17:32:07Z</time>
      </trkpt>
      <trkpt lat="43.6365" lon="4.07427">
        <ele>5.052</ele>
        <time>2021-07-06T17:32:22Z</time>
      </trkpt>
      <trkpt lat="43.63667" lon="4.07525">
        <ele>5.085</ele>
        <time>2021-07-06T17:32:37Z</time>
      </trkpt>
      <trkpt lat="43.63772" lon="4.07861">
        <ele>5.083</ele>
        <time>2021-07-06T17:33:31Z</time>
      </trkpt>
      <trkpt lat="43.63573" lon="4.07986">
        <ele>4.046</ele>
        <time>2021-07-06T17:34:13Z</time>
      </trkpt>
      <trkpt lat="43.63288" lon="4.08751">
        <ele>2.081</ele>
        <time>2021-07-06T17:36:03Z</time>
      </trkpt>
      <trkpt lat="43.62899" lon="4.09066">
        <ele>2.052</ele>
        <time>2021-07-06T17:37:23Z</time>
      </trkpt>
      <trkpt lat="43.62778" lon="4.09118">
        <ele>1.031</ele>
        <time>2021-07-06T17:37:46Z</time>
      </trkpt>
      <trkpt lat="43.62599" lon="4.09117">
        <ele>1.061</ele>
        <time>2021-07-06T17:38:19Z</time>
      </trkpt>
      <trkpt lat="43.62534" lon="4.091">
        <ele>1.007</ele>
        <time>2021-07-06T17:38:34Z</time>
      </trkpt>
      <trkpt lat="43.62266" lon="4.0915">
        <ele>1.008</ele>
        <time>2021-07-06T17:39:29Z</time>
      </trkpt>
      <trkpt lat="43.61938" lon="4.0933">
        <ele>1.09</ele>
        <time>2021-07-06T17:40:39Z</time>
      </trkpt>
      <trkpt lat="43.61693" lon="4.09342">
        <ele>1.07</ele>
        <time>2021-07-06T17:41:28Z</time>
      </trkpt>
      <trkpt lat="43.61277" lon="4.09241">
        <ele>1.048</ele>
        <time>2021-07-06T17:42:59Z</time>
      </trkpt>
      <trkpt lat="43.61286" lon="4.09254">
        <ele>1.081</ele>
        <time>2021-07-06T17:43:49Z</time>
      </trkpt>
      <trkpt lat="43.61272" lon="4.09231">
        <ele>1.089</ele>
        <time>2021-07-06T17:44:32Z</time>
      </trkpt>
      <trkpt lat="43.61281" lon="4.09247">
        <ele>1.022</ele>
        <time>2021-07-06T17:44:44Z</time>
      </trkpt>
      <trkpt lat="43.61536" lon="4.093">
        <ele>1.067</ele>
        <time>2021-07-06T17:45:48Z</time>
      </trkpt>
      <trkpt lat="43.61538" lon="4.09341">
        <ele>1.038</ele>
        <time>2021-07-06T17:47:03Z</time>
      </trkpt>
      <trkpt lat="43.61388" lon="4.09298">
        <ele>1.071</ele>
        <time>2021-07-06T17:48:02Z</time>
      </trkpt>
      <trkpt lat="43.61327" lon="4.09304">
        <ele>1.041</ele>
        <time>2021-07-06T17:48:20Z</time>
      </trkpt>
      <trkpt lat="43.61302" lon="4.09281">
        <ele>1.015</ele>
        <time>2021-07-06T17:48:31Z</time>
      </trkpt>
      <trkpt lat="43.6128" lon="4.09301">
        <ele>1.008</ele>
        <time>2021-07-06T17:49:23Z</time>
      </trkpt>
      <trkpt lat="43.61229" lon="4.09307">
        <ele>1.094</ele>
        <time>2021-07-06T17:49:38Z</time>
      </trkpt>
      <trkpt lat="43.61224" lon="4.09321">
        <ele>1.074</ele>
        <time>2021-07-06T17:49:42Z</time>
      </trkpt>
      <trkpt lat="43.6121" lon="4.09286">
        <ele>1.012</ele>
        <time>2021-07-06T17:49:56Z</time>
      </trkpt>
      <trkpt lat="43.61146" lon="4.09269">
        <ele>1.025</ele>
        <time>2021-07-06T17:50:18Z</time>
      </trkpt>
      <trkpt lat="43.6121" lon="4.09286">
        <ele>1.083</ele>
        <time>2021-07-06T17:51:11Z</time>
      </trkpt>
      <trkpt lat="43.61222" lon="4.09305">
        <ele>1.096</ele>
        <time>2021-07-06T17:51:15Z</time>
      </trkpt>
      <trkpt lat="43.6125" lon="4.09791">
        <ele>1.051</ele>
        <time>2021-07-06T17:52:50Z</time>
      </trkpt>
      <trkpt lat="43.60771" lon="4.10588">
        <ele>1.092</ele>
        <time>2021-07-06T17:56:54Z</time>
      </trkpt>
      <trkpt lat="43.60755" lon="4.10596">
        <ele>1.043</ele>
        <time>2021-07-06T17:56:59Z</time>
      </trkpt>
      <trkpt lat="43.60904" lon="4.10714">
        <ele>1.064</ele>
        <time>2021-07-06T17:58:09Z</time>
      </trkpt>
      <trkpt lat="43.60749" lon="4.10595">
        <ele>1.01</ele>
        <time>2021-07-06T18:02:38Z</time>
      </trkpt>
      <trkpt lat="43.60771" lon="4.10586">
        <ele>1.008</ele>
        <time>2021-07-06T18:03:41Z</time>
      </trkpt>
      <trkpt lat="43.61251" lon="4.09799">
        <ele>1.061</ele>
        <time>2021-07-06T18:06:32Z</time>
      </trkpt>
      <trkpt lat="43.61914" lon="4.09753">
        <ele>1.091</ele>
        <time>2021-07-06T18:08:31Z</time>
      </trkpt>
      <trkpt lat="43.62425" lon="4.09583">
        <ele>1.079</ele>
        <time>2021-07-06T18:10:22Z</time>
      </trkpt>
      <trkpt lat="43.62484" lon="4.09673">
        <ele>1.092</ele>
        <time>2021-07-06T18:12:06Z</time>
      </trkpt>
      <trkpt lat="43.62574" lon="4.09872">
        <ele>1.02</ele>
        <time>2021-07-06T18:12:49Z</time>
      </trkpt>
      <trkpt lat="43.62531" lon="4.09783">
        <ele>1.093</ele>
        <time>2021-07-06T18:13:17Z</time>
      </trkpt>
      <trkpt lat="43.62654" lon="4.09997">
        <ele>1.088</ele>
        <time>2021-07-06T18:15:30Z</time>
      </trkpt>
      <trkpt lat="43.6282" lon="4.10549">
        <ele>1.089</ele>
        <time>2021-07-06T18:17:24Z</time>
      </trkpt>
      <trkpt lat="43.62867" lon="4.10631">
        <ele>1.018</ele>
        <time>2021-07-06T18:17:48Z</time>
      </trkpt>
      <trkpt lat="43.62887" lon="4.10697">
        <ele>1.098</ele>
        <time>2021-07-06T18:19:42Z</time>
      </trkpt>
      <trkpt lat="43.62888" lon="4.10765">
        <ele>1.017</ele>
        <time>2021-07-06T18:20:17Z</time>
      </trkpt>
      <trkpt lat="43.6295" lon="4.10957">
        <ele>1.008</ele>
        <time>2021-07-06T18:21:14Z</time>
      </trkpt>
      <trkpt lat="43.62958" lon="4.11023">
        <ele>1.068</ele>
        <time>2021-07-06T18:21:31Z</time>
      </trkpt>
      <trkpt lat="43.62985" lon="4.11073">
        <ele>1.068</ele>
        <time>2021-07-06T18:21:45Z</time>
      </trkpt>
      <trkpt lat="43.63033" lon="4.11231">
        <ele>1.036</ele>
        <time>2021-07-06T18:22:22Z</time>
      </trkpt>
      <trkpt lat="43.63267" lon="4.11143">
        <ele>2.039</ele>
        <time>2021-07-06T18:23:33Z</time>
      </trkpt>
      <trkpt lat="43.63499" lon="4.11079">
        <ele>2.047</ele>
        <time>2021-07-06T18:24:42Z</time>
      </trkpt>
      <trkpt lat="43.637" lon="4.11284">
        <ele>2.01</ele>
        <time>2021-07-06T18:26:06Z</time>
      </trkpt>
      <trkpt lat="43.63801" lon="4.11197">
        <ele>2.095</ele>
        <time>2021-07-06T18:26:57Z</time>
      </trkpt>
      <trkpt lat="43.63949" lon="4.11112">
        <ele>2.026</ele>
        <time>2021-07-06T18:27:29Z</time>
      </trkpt>
      <trkpt lat="43.63946" lon="4.11133">
        <ele>2.065</ele>
        <time>2021-07-06T18:27:35Z</time>
      </trkpt>
      <trkpt lat="43.63993" lon="4.11233">
        <ele>2.068</ele>
        <time>2021-07-06T18:27:54Z</time>
      </trkpt>
      <trkpt lat="43.641" lon="4.11397">
        <ele>2.014</ele>
        <time>2021-07-06T18:28:24Z</time>
      </trkpt>
      <trkpt lat="43.64219" lon="4.11722">
        <ele>2.008</ele>
        <time>2021-07-06T18:29:13Z</time>
      </trkpt>
      <trkpt lat="43.64328" lon="4.11944">
        <ele>2.083</ele>
        <time>2021-07-06T18:29:52Z</time>
      </trkpt>
      <trkpt lat="43.64405" lon="4.11946">
        <ele>2.063</ele>
        <time>2021-07-06T18:30:12Z</time>
      </trkpt>
      <trkpt lat="43.6441" lon="4.11902">
        <ele>2.051</ele>
        <time>2021-07-06T18:30:22Z</time>
      </trkpt>
      <trkpt lat="43.64425" lon="4.11884">
        <ele>2.084</ele>
        <time>2021-07-06T18:30:29Z</time>
      </trkpt>
      <trkpt lat="43.6436" lon="4.11859">
        <ele>2.072</ele>
        <time>2021-07-06T18:30:59Z</time>
      </trkpt>
      <trkpt lat="43.64324" lon="4.11778">
        <ele>2.075</ele>
        <time>2021-07-06T18:31:17Z</time>
      </trkpt>
      <trkpt lat="43.64267" lon="4.11819">
        <ele>2.02</ele>
        <time>2021-07-06T18:31:31Z</time>
      </trkpt>
      <trkpt lat="43.64284" lon="4.11879">
        <ele>2.041</ele>
        <time>2021-07-06T18:31:45Z</time>
      </trkpt>
      <trkpt lat="43.64295" lon="4.11878">
        <ele>2.073</ele>
        <time>2021-07-06T18:31:56Z</time>
      </trkpt>
      <trkpt lat="43.64376" lon="4.1204">
        <ele>2.085</ele>
        <time>2021-07-06T18:32:27Z</time>
      </trkpt>
      <trkpt lat="43.64409" lon="4.12028">
        <ele>2.013</ele>
        <time>2021-07-06T18:32:37Z</time>
      </trkpt>
      <trkpt lat="43.64443" lon="4.11993">
        <ele>2.008</ele>
        <time>2021-07-06T18:32:48Z</time>
      </trkpt>
      <trkpt lat="43.6444" lon="4.11967">
        <ele>2.074</ele>
        <time>2021-07-06T18:33:01Z</time>
      </trkpt>
      <trkpt lat="43.64548" lon="4.11838">
        <ele>2.014</ele>
        <time>2021-07-06T18:33:37Z</time>
      </trkpt>
      <trkpt lat="43.64646" lon="4.11769">
        <ele>2.052</ele>
        <time>2021-07-06T18:33:55Z</time>
      </trkpt>
      <trkpt lat="43.64694" lon="4.11767">
        <ele>2.035</ele>
        <time>2021-07-06T18:34:05Z</time>
      </trkpt>
      <trkpt lat="43.64679" lon="4.11762">
        <ele>2.023</ele>
        <time>2021-07-06T18:34:28Z</time>
      </trkpt>
      <trkpt lat="43.6468" lon="4.11745">
        <ele>2.046</ele>
        <time>2021-07-06T18:34:32Z</time>
      </trkpt>
      <trkpt lat="43.64765" lon="4.11571">
        <ele>2.061</ele>
        <time>2021-07-06T18:35:01Z</time>
      </trkpt>
      <trkpt lat="43.64831" lon="4.11486">
        <ele>2.062</ele>
        <time>2021-07-06T18:35:18Z</time>
      </trkpt>
      <trkpt lat="43.64838" lon="4.11404">
        <ele>2.091</ele>
        <time>2021-07-06T18:35:29Z</time>
      </trkpt>
      <trkpt lat="43.64917" lon="4.11338">
        <ele>2.081</ele>
        <time>2021-07-06T18:35:46Z</time>
      </trkpt>
      <trkpt lat="43.65017" lon="4.11286">
        <ele>2.019</ele>
        <time>2021-07-06T18:36:06Z</time>
      </trkpt>
      <trkpt lat="43.65074" lon="4.1129">
        <ele>2.008</ele>
        <time>2021-07-06T18:36:17Z</time>
      </trkpt>
      <trkpt lat="43.65165" lon="4.1125">
        <ele>2.056</ele>
        <time>2021-07-06T18:36:36Z</time>
      </trkpt>
      <trkpt lat="43.65213" lon="4.11283">
        <ele>2.066</ele>
        <time>2021-07-06T18:36:48Z</time>
      </trkpt>
      <trkpt lat="43.65327" lon="4.1124">
        <ele>2.034</ele>
        <time>2021-07-06T18:37:13Z</time>
      </trkpt>
      <trkpt lat="43.6537" lon="4.11261">
        <ele>2.387</ele>
        <time>2021-07-06T18:37:55Z</time>
      </trkpt>
      <trkpt lat="43.65393" lon="4.1121">
        <ele>2.185</ele>
        <time>2021-07-06T18:38:08Z</time>
      </trkpt>
      <trkpt lat="43.65416" lon="4.11228">
        <ele>3.048</ele>
        <time>2021-07-06T18:38:17Z</time>
      </trkpt>
      <trkpt lat="43.65443" lon="4.11204">
        <ele>3.013</ele>
        <time>2021-07-06T18:38:25Z</time>
      </trkpt>
      <trkpt lat="43.65583" lon="4.1121">
        <ele>3.624</ele>
        <time>2021-07-06T18:38:53Z</time>
      </trkpt>
      <trkpt lat="43.657" lon="4.1116">
        <ele>4.048</ele>
        <time>2021-07-06T18:39:16Z</time>
      </trkpt>
      <trkpt lat="43.65759" lon="4.11151">
        <ele>4.061</ele>
        <time>2021-07-06T18:39:27Z</time>
      </trkpt>
      <trkpt lat="43.65886" lon="4.11082">
        <ele>5.017</ele>
        <time>2021-07-06T18:39:54Z</time>
      </trkpt>
      <trkpt lat="43.65778" lon="4.10894">
        <ele>4.008</ele>
        <time>2021-07-06T18:41:07Z</time>
      </trkpt>
      <trkpt lat="43.65708" lon="4.10836">
        <ele>4.031</ele>
        <time>2021-07-06T18:41:29Z</time>
      </trkpt>
      <trkpt lat="43.65635" lon="4.10913">
        <ele>4.061</ele>
        <time>2021-07-06T18:41:48Z</time>
      </trkpt>
      <trkpt lat="43.65583" lon="4.11042">
        <ele>4.039</ele>
        <time>2021-07-06T18:42:14Z</time>
      </trkpt>
      <trkpt lat="43.65636" lon="4.10913">
        <ele>4.062</ele>
        <time>2021-07-06T18:42:51Z</time>
      </trkpt>
      <trkpt lat="43.65702" lon="4.10834">
        <ele>4.03</ele>
        <time>2021-07-06T18:43:10Z</time>
      </trkpt>
      <trkpt lat="43.65776" lon="4.10879">
        <ele>4.033</ele>
        <time>2021-07-06T18:43:33Z</time>
      </trkpt>
      <trkpt lat="43.65814" lon="4.10803">
        <ele>5.088</ele>
        <time>2021-07-06T18:43:48Z</time>
      </trkpt>
      <trkpt lat="43.65849" lon="4.10661">
        <ele>5.099</ele>
        <time>2021-07-06T18:44:05Z</time>
      </trkpt>
      <trkpt lat="43.65921" lon="4.10582">
        <ele>5.016</ele>
        <time>2021-07-06T18:44:34Z</time>
      </trkpt>
      <trkpt lat="43.66235" lon="4.1041">
        <ele>5.076</ele>
        <time>2021-07-06T18:45:56Z</time>
      </trkpt>
      <trkpt lat="43.66298" lon="4.10328">
        <ele>5.113</ele>
        <time>2021-07-06T18:46:15Z</time>
      </trkpt>
      <trkpt lat="43.66323" lon="4.10387">
        <ele>5.008</ele>
        <time>2021-07-06T18:46:30Z</time>
      </trkpt>
      <trkpt lat="43.66334" lon="4.10381">
        <ele>5.048</ele>
        <time>2021-07-06T18:46:34Z</time>
      </trkpt>
      <trkpt lat="43.66344" lon="4.10217">
        <ele>6.168</ele>
        <time>2021-07-06T18:47:07Z</time>
      </trkpt>
      <trkpt lat="43.66387" lon="4.09971">
        <ele>7.046</ele>
        <time>2021-07-06T18:47:49Z</time>
      </trkpt>
      <trkpt lat="43.66488" lon="4.09802">
        <ele>7.059</ele>
        <time>2021-07-06T18:48:23Z</time>
      </trkpt>
      <trkpt lat="43.66569" lon="4.09563">
        <ele>8.017</ele>
        <time>2021-07-06T18:49:03Z</time>
      </trkpt>
      <trkpt lat="43.66682" lon="4.09573">
        <ele>9.88</ele>
        <time>2021-07-06T18:49:28Z</time>
      </trkpt>
      <trkpt lat="43.66794" lon="4.09561">
        <ele>10.015</ele>
        <time>2021-07-06T18:49:51Z</time>
      </trkpt>
      <trkpt lat="43.67028" lon="4.09439">
        <ele>10.026</ele>
        <time>2021-07-06T18:50:43Z</time>
      </trkpt>
      <trkpt lat="43.67233" lon="4.09413">
        <ele>11.052</ele>
        <time>2021-07-06T18:51:20Z</time>
      </trkpt>
      <trkpt lat="43.67538" lon="4.0927">
        <ele>12.053</ele>
        <time>2021-07-06T18:52:27Z</time>
      </trkpt>
      <trkpt lat="43.67406" lon="4.08813">
        <ele>11.208</ele>
        <time>2021-07-06T18:53:34Z</time>
      </trkpt>
      <trkpt lat="43.67335" lon="4.08352">
        <ele>13.008</ele>
        <time>2021-07-06T18:54:38Z</time>
      </trkpt>
      <trkpt lat="43.67241" lon="4.08088">
        <ele>14.062</ele>
        <time>2021-07-06T18:55:21Z</time>
      </trkpt>
      <trkpt lat="43.67209" lon="4.07921">
        <ele>13.032</ele>
        <time>2021-07-06T18:55:45Z</time>
      </trkpt>
      <trkpt lat="43.67055" lon="4.07458">
        <ele>13.09</ele>
        <time>2021-07-06T18:56:56Z</time>
      </trkpt>
      <trkpt lat="43.67019" lon="4.07119">
        <ele>14.083</ele>
        <time>2021-07-06T18:57:44Z</time>
      </trkpt>
      <trkpt lat="43.6705" lon="4.07051">
        <ele>15.071</ele>
        <time>2021-07-06T18:57:59Z</time>
      </trkpt>
      <trkpt lat="43.671" lon="4.07076">
        <ele>15.084</ele>
        <time>2021-07-06T18:58:14Z</time>
      </trkpt>
      <trkpt lat="43.67157" lon="4.07032">
        <ele>15.719</ele>
        <time>2021-07-06T18:58:27Z</time>
      </trkpt>
      <trkpt lat="43.67081" lon="4.06915">
        <ele>15.01</ele>
        <time>2021-07-06T18:58:52Z</time>
      </trkpt>
      <trkpt lat="43.67033" lon="4.06645">
        <ele>15.089</ele>
        <time>2021-07-06T18:59:28Z</time>
      </trkpt>
      <trkpt lat="43.66941" lon="4.06392">
        <ele>15.006</ele>
        <time>2021-07-06T19:00:06Z</time>
      </trkpt>
      <trkpt lat="43.66897" lon="4.06293">
        <ele>15.126</ele>
        <time>2021-07-06T19:00:25Z</time>
      </trkpt>
      <trkpt lat="43.66811" lon="4.06196">
        <ele>15.008</ele>
        <time>2021-07-06T19:00:49Z</time>
      </trkpt>
      <trkpt lat="43.6679" lon="4.06133">
        <ele>15.035</ele>
        <time>2021-07-06T19:00:59Z</time>
      </trkpt>
      <trkpt lat="43.66878" lon="4.05939">
        <ele>15.065</ele>
        <time>2021-07-06T19:01:33Z</time>
      </trkpt>
      <trkpt lat="43.66997" lon="4.05791">
        <ele>17.013</ele>
        <time>2021-07-06T19:02:06Z</time>
      </trkpt>
      <trkpt lat="43.67002" lon="4.05829">
        <ele>17.196</ele>
        <time>2021-07-06T19:02:36Z</time>
      </trkpt>
      <trkpt lat="43.6699" lon="4.05847">
        <ele>17.044</ele>
        <time>2021-07-06T19:02:57Z</time>
      </trkpt>
    </trkseg>
  </trk>
</gpx>